In Rescue
 
Open Full Screen Window  High Contrast Mode
Wind Gusting 19 knots
15
May 20, 2019 3:45 PM EDT
Weather Information
Wind Direction
  290 °
Wind Speed
  15 kt (17 mph)
Wind Gust
  19 kt (22 mph)
Altimeter
30.01 in
Visibility
10 SM
Temperature
16° C
61° F
Dewpoint
09° C
48° F
Humidity
63%
1hr Rain Fall
00.00 in.
24hr Rain Fall
00.07 in.
Sky Condition
Overcast @ 4,200 ft
Scattered @ 3,400 ft
VFR

METAR KDLZ 201945Z AUTO 29015G19KT 10SM SCT034 OVC042 16/09 A3001 RMK AO2

FAA Disclaimer: The data displayed is for advisory purposes only and is not to be used for flight planning or operations.